Plymouth, NH

10:22 AM EDT on March 26, 2017 (GMT -0400)
Plymouth

Weather History for K1P1 - February, 2013

Change the Weather History Date:

Friday, February 1, 2013

  Actual Average (KLCI) Record (KLCI)
Temperature  
Mean Temperature 21 °F -  
Max Temperature 26 °F 32 °F 55 °F (1988)
Min Temperature 15 °F 13 °F -3 °F (1994)
Degree Days  
Heating Degree Days 44    
Moisture  
Dew Point 7 °F    
Average Humidity 53    
Maximum Humidity 67    
Minimum Humidity 43    
Precipitation  
Precipitation 0.00 in - - ()
Sea Level Pressure  
Sea Level Pressure 29.75 in    
Wind  
Wind Speed 10 mph (WNW)    
Max Wind Speed 17 mph    
Max Gust Speed 28 mph    
Visibility 10 miles    
Events Snow    
Averages and records for this station are not official NWS values.
T = Trace of Precipitation, MM = Missing Value Source: NWS Daily Summary

Daily Weather History Graph

Daily Weather History Graph

Search for Another Location

Airport or City:

Trip Planner

Search our weather history database for the weather conditions in past years. The results will help you decide how hot, cold, wet, or windy it might be!

Date:

Astronomy

Feb. 01, 2013 Rise Set
Actual Time 7:03 AM EST 4:58 PM EST
Civil Twilight 6:33 AM EST 5:28 PM EST
Nautical Twilight 5:58 AM EST 6:03 PM EST
Astronomical Twilight 5:25 AM EST 6:36 PM EST
Moon 11:16 PM EST (2/1) 9:22 AM EST (2/1)
Length of Visible Light 10h 55m
Length of Day
9h 54m
Waning Gibbous, 70% of the Moon is Illuminated
Feb 1
Waning Gibbous
Feb 3
Last Quarter
Feb 10
New
Feb 17
First Quarter
Feb 25
Full

Hourly Weather History & Observations

Time (EST) Temp. Windchill Dew Point Humidity Pressure Visibility Wind Dir Wind Speed Gust Speed Precip Events Conditions
12:35 AM 25.5 °F 16.2 °F 14.9 °F 64% 29.49 in 10.0 mi West 9.2 mph 24.2 mph N/A   Unknown
12:55 AM 25.5 °F 14.9 °F 13.8 °F 61% 29.49 in 10.0 mi West 11.5 mph 20.7 mph N/A   Unknown
1:15 AM 25.3 °F 15.3 °F 13.6 °F 61% 29.50 in 10.0 mi West 10.4 mph 21.9 mph N/A   Unknown
1:35 AM 25.3 °F 12.2 °F 11.1 °F 55% 29.51 in 10.0 mi West 17.3 mph 24.2 mph N/A   Unknown
1:55 AM 25.2 °F 12.9 °F 8.4 °F 49% 29.51 in 10.0 mi West 15.0 mph 27.6 mph N/A   Unknown
2:15 AM 25.0 °F 14.2 °F 7.9 °F 48% 29.52 in 7.0 mi West 11.5 mph 27.6 mph N/A   Unknown
2:35 AM 24.8 °F 15.3 °F 7.5 °F 48% 29.52 in 10.0 mi West 9.2 mph - N/A   Unknown
2:55 AM 24.4 °F 13.5 °F 7.3 °F 48% 29.53 in 10.0 mi West 11.5 mph 18.4 mph N/A   Unknown
3:15 AM 24.3 °F 11.7 °F 7.2 °F 48% 29.53 in 10.0 mi West 15.0 mph 24.2 mph N/A   Unknown
3:35 AM 24.3 °F 12.2 °F 6.8 °F 47% 29.53 in 10.0 mi West 13.8 mph 25.3 mph N/A   Unknown
3:55 AM 23.9 °F 15.0 °F 6.8 °F 48% 29.53 in 10.0 mi WSW 8.1 mph 18.4 mph N/A   Unknown
4:15 AM 23.5 °F 14.5 °F 6.8 °F 49% 29.54 in 10.0 mi West 8.1 mph - N/A   Unknown
4:35 AM 23.7 °F 19.3 °F 6.4 °F 48% 29.55 in 10.0 mi West 3.5 mph - N/A   Unknown
4:55 AM 23.0 °F 15.8 °F 7.0 °F 50% 29.55 in 10.0 mi WSW 5.8 mph - N/A   Unknown
5:15 AM 22.8 °F 13.6 °F 6.8 °F 50% 29.56 in 10.0 mi WSW 8.1 mph - N/A   Unknown
5:35 AM 22.6 °F 15.3 °F 7.0 °F 51% 29.56 in 10.0 mi West 5.8 mph - N/A   Unknown
5:55 AM 22.6 °F 16.5 °F 7.3 °F 52% 29.58 in 10.0 mi West 4.6 mph - N/A   Unknown
6:15 AM 22.3 °F 13.0 °F 7.5 °F 53% 29.58 in 10.0 mi WSW 8.1 mph - N/A   Unknown
6:35 AM 22.5 °F 16.3 °F 7.0 °F 52% 29.59 in 10.0 mi West 4.6 mph 16.1 mph N/A   Unknown
6:55 AM 22.1 °F 12.0 °F 7.5 °F 54% 29.60 in 10.0 mi WSW 9.2 mph - N/A   Unknown
7:35 AM 22.5 °F 13.2 °F 7.2 °F 52% 29.63 in 10.0 mi West 8.1 mph 16.1 mph N/A   Unknown
7:55 AM 22.6 °F 13.4 °F 7.3 °F 52% 29.64 in 10.0 mi West 8.1 mph 25.3 mph N/A   Unknown
8:15 AM 22.6 °F 10.1 °F 9.0 °F 56% 29.66 in 10.0 mi West 13.8 mph 18.4 mph N/A   Unknown
8:55 AM 22.1 °F 12.0 °F 12.0 °F 65% 29.68 in 7.0 mi West 9.2 mph 17.3 mph N/A Snow Light Snow
9:15 AM 21.4 °F 11.9 °F 12.0 °F 67% 29.69 in 10.0 mi West 8.1 mph 21.9 mph N/A   Unknown
9:35 AM 22.1 °F 12.8 °F 11.3 °F 63% 29.71 in 10.0 mi WNW 8.1 mph - N/A   Unknown
9:55 AM 22.1 °F 10.6 °F 10.2 °F 60% 29.72 in 10.0 mi WNW 11.5 mph 17.3 mph N/A   Unknown
10:15 AM 21.9 °F 12.5 °F 9.3 °F 58% 29.73 in 10.0 mi WNW 8.1 mph - N/A   Unknown
10:35 AM 22.6 °F 11.3 °F 9.7 °F 58% 29.74 in 10.0 mi West 11.5 mph 18.4 mph N/A Snow Light Snow
10:55 AM 22.6 °F 12.6 °F 9.7 °F 58% 29.75 in 10.0 mi WNW 9.2 mph - N/A   Unknown
11:15 AM 22.8 °F 13.6 °F 10.0 °F 58% 29.76 in 10.0 mi WNW 8.1 mph - N/A   Unknown
11:35 AM 22.8 °F 13.6 °F 10.6 °F 59% 29.76 in 10.0 mi WNW 8.1 mph - N/A   Unknown
11:55 AM 23.0 °F 12.4 °F 10.0 °F 58% 29.75 in 10.0 mi West 10.4 mph - N/A   Unknown
12:15 PM 23.4 °F 12.2 °F 8.2 °F 53% 29.75 in 10.0 mi West 11.5 mph 16.1 mph N/A   Unknown
12:35 PM 23.9 °F 14.2 °F 7.0 °F 49% 29.75 in 10.0 mi WNW 9.2 mph 18.4 mph N/A   Unknown
12:55 PM 23.5 °F 12.4 °F 6.1 °F 47% 29.74 in 10.0 mi West 11.5 mph 19.6 mph N/A   Unknown
1:15 PM 24.1 °F 13.7 °F 5.5 °F 45% 29.74 in 10.0 mi WNW 10.4 mph - N/A   Unknown
1:35 PM 26.1 °F 14.5 °F 6.4 °F 43% 29.74 in 10.0 mi NW 13.8 mph 19.6 mph N/A   Unknown
1:55 PM 26.1 °F 14.0 °F 6.8 °F 44% 29.74 in 10.0 mi WNW 15.0 mph 21.9 mph N/A   Unknown
2:15 PM 24.8 °F 12.9 °F 7.5 °F 48% 29.74 in 10.0 mi NW 13.8 mph 19.6 mph N/A   Unknown
2:35 PM 24.6 °F 12.2 °F 6.1 °F 45% 29.75 in 10.0 mi WNW 15.0 mph 24.2 mph N/A   Unknown
2:55 PM 24.3 °F 12.2 °F 6.4 °F 47% 29.76 in 10.0 mi NW 13.8 mph 23.0 mph N/A   Unknown
3:15 PM 24.1 °F 12.5 °F 6.8 °F 48% 29.77 in 10.0 mi WNW 12.7 mph 19.6 mph N/A   Unknown
3:35 PM 23.0 °F 11.1 °F 7.0 °F 50% 29.78 in 10.0 mi WNW 12.7 mph 25.3 mph N/A   Unknown
3:55 PM 22.5 °F 8.9 °F 6.3 °F 50% 29.79 in 10.0 mi WNW 16.1 mph 24.2 mph N/A   Unknown
4:15 PM 21.6 °F 10.6 °F 5.4 °F 50% 29.81 in 10.0 mi NW 10.4 mph 19.6 mph N/A   Unknown
4:35 PM 20.8 °F 7.3 °F 4.6 °F 50% 29.82 in 10.0 mi WNW 15.0 mph 23.0 mph N/A   Unknown
4:55 PM 20.1 °F 9.5 °F 4.8 °F 52% 29.83 in 10.0 mi NW 9.2 mph 21.9 mph N/A   Unknown
5:15 PM 19.4 °F 8.6 °F 4.3 °F 52% 29.85 in 10.0 mi WNW 9.2 mph 25.3 mph N/A   Unknown
5:35 PM 19.0 °F 11.1 °F 4.8 °F 54% 29.86 in 10.0 mi WNW 5.8 mph - N/A   Unknown
5:55 PM 18.9 °F 9.8 °F 4.6 °F 54% 29.88 in 10.0 mi WNW 6.9 mph - N/A   Unknown
6:15 PM 18.5 °F 9.3 °F 4.5 °F 54% 29.89 in 10.0 mi WNW 6.9 mph - N/A   Unknown
6:35 PM 18.1 °F 7.9 °F 5.0 °F 57% 29.91 in 10.0 mi West 8.1 mph - N/A   Unknown
6:55 PM 18.0 °F 9.8 °F 4.6 °F 56% 29.92 in 10.0 mi WNW 5.8 mph - N/A   Unknown
7:15 PM 17.6 °F 10.7 °F 4.1 °F 56% 29.94 in 10.0 mi WNW 4.6 mph - N/A   Unknown
7:35 PM 17.4 °F 9.1 °F 4.8 °F 58% 29.94 in 10.0 mi WNW 5.8 mph - N/A   Unknown
7:55 PM 17.4 °F 9.1 °F 3.7 °F 55% 29.96 in 10.0 mi WNW 5.8 mph - N/A   Unknown
8:15 PM 17.2 °F 10.2 °F 3.4 °F 55% 29.97 in 10.0 mi WNW 4.6 mph - N/A   Unknown
8:35 PM 17.2 °F 8.9 °F 2.8 °F 53% 29.97 in 10.0 mi WNW 5.8 mph - N/A   Unknown
8:55 PM 17.1 °F 5.8 °F 3.0 °F 54% 29.99 in 10.0 mi NW 9.2 mph - N/A   Unknown
9:15 PM 16.7 °F 7.2 °F 2.5 °F 54% 29.99 in 10.0 mi NW 6.9 mph 17.3 mph N/A   Unknown
9:35 PM 16.7 °F 8.3 °F 2.7 °F 54% 30.00 in 10.0 mi NW 5.8 mph - N/A   Unknown
9:55 PM 16.7 °F 6.2 °F 2.7 °F 54% 30.00 in 10.0 mi WNW 8.1 mph - N/A   Unknown
10:15 PM 16.3 °F 5.7 °F 3.0 °F 56% 30.01 in 10.0 mi NW 8.1 mph - N/A   Unknown
10:35 PM 16.2 °F 9.0 °F 3.6 °F 58% 30.01 in 10.0 mi West 4.6 mph - N/A   Unknown
10:55 PM 16.2 °F 7.6 °F 3.2 °F 57% 30.01 in 10.0 mi WNW 5.8 mph - N/A   Unknown
11:15 PM 16.3 °F 5.7 °F 3.4 °F 57% 30.02 in 10.0 mi West 8.1 mph - N/A   Unknown
11:35 PM 16.2 °F 9.0 °F 4.1 °F 59% 30.02 in 10.0 mi West 4.6 mph - N/A   Unknown
11:55 PM 15.6 °F 8.3 °F 3.9 °F 60% 30.03 in 10.0 mi WNW 4.6 mph - N/A   Unknown